Terminal Aerodrome Forecast
Issued by NWS

Home | Current Version | Previous Version | Text Only | Print | Product List | Glossary On
Versions: 1 2 3 4 5 6 7 8 9 10 11 12 13 14 15 16 17 18 19 20
000
FTUS41 KCAR 222355 AAA
TAFHUL
TAF AMD
KHUL 222355Z 2300/2324 22010G20KT P6SM BKN040
      TEMPO 2300/2302 4SM -SHSN
     FM230300 23008KT P6SM OVC050
     FM231400 27010KT P6SM BKN070=

USA.gov is the U.S. government's official web portal to all federal, state and local government web resources and services.